Current Weather Conditions: station 46208

sailwx.info

Last reported at 2019-Aug-25 09:28 UTC.
Time now 2020-Jan-22 15:58 UTC

Location: N 52°30' W 132°42'.
View on Google Maps.

See reports from other nearby stations

  
Tides and Currents Weather Stations Pressure Air Temp Water Temp Dewpoint Dewpoint Depression Visibility Wind Speed Wind Dir Waves Ship Positions
date/time (UTC)wind fromknots sea level pressurealtimeterstation pressurevisibilityair tempwater tempwave heightnotes
2020-Jan-22 14:00 150 17 gusting 21 6.7 2.6
2020-Jan-22 13:00 160 15 gusting 19 6.8 2.5
2020-Jan-22 12:00 170 15 gusting 19 6.9 2.4
2020-Jan-22 11:00 170 13 gusting 17 6.8 2.5
2020-Jan-22 10:00 160 13 gusting 17 6.8 2.8
2020-Jan-22 09:00 150 15 gusting 19 7.0 2.7
2020-Jan-22 08:00 140 15 gusting 19 7.4 2.8
2020-Jan-22 07:00 160 11 gusting 15 7.5 2.9
2020-Jan-22 06:00 160 11 gusting 13 7.5 3.0
2020-Jan-22 05:00 140 7 gusting 11 7.7 3.1
2020-Jan-22 04:00 170 9 gusting 13 7.6 3.5
2020-Jan-22 03:00 160 9 gusting 13 7.6 3.3
2020-Jan-22 02:00 160 7 gusting 9 7.6 3.4
2020-Jan-22 01:00 170 3 gusting 5 7.5 3.5
2020-Jan-22 00:00 150 5 gusting 7 7.3 3.8
2020-Jan-21 23:00 150 5 gusting 7 7.2 3.9
2020-Jan-21 22:00 110 5 gusting 9 7.8 3.7
2020-Jan-21 21:00 130 7 gusting 11 7.8 4.0
2020-Jan-21 20:00 150 9 gusting 13 7.6 4.0
2020-Jan-21 19:00 160 11 gusting 15 7.8 4.1
2020-Jan-21 18:00 170 13 gusting 17 7.7 3.9
2020-Jan-21 17:00 160 11 gusting 15 7.0 4.2
2020-Jan-21 16:00 130 7 gusting 11 7.4 4.4
2020-Jan-21 15:00 100 13 gusting 15 7.1 4.1
2020-Jan-21 13:00 120 13 gusting 17 7.7 4.0
2020-Jan-21 12:00 110 17 gusting 23 7.3 4.1
2020-Jan-21 11:00 100 25 gusting 33 7.9 4.0
2020-Jan-21 09:00 110 25 gusting 33 8.0 3.9
2020-Jan-21 07:00 090 23 gusting 31 7.6 3.4
2020-Jan-21 06:00 080 21 gusting 27 7.5 3.3
2020-Jan-21 05:00 080 23 gusting 27 7.5 3.5
2020-Jan-21 04:00 100 25 gusting 31 7.7 3.6
2020-Jan-21 03:00 110 25 gusting 33 8.4 3.9
2020-Jan-21 02:00 110 23 gusting 29 8.0 3.9
2020-Jan-21 01:00 110 19 gusting 23 7.7 3.9
2020-Jan-21 00:00 110 23 gusting 27 7.3 3.6
2020-Jan-20 23:00 120 19 gusting 25 7.9 3.9
2020-Jan-20 22:00 130 17 gusting 21 7.9 3.8
2020-Jan-20 21:00 130 17 gusting 23 7.7 3.8
2020-Jan-20 20:00 130 15 gusting 19 7.7 3.4
2020-Jan-20 19:00 130 11 gusting 15 7.6 3.9
2020-Jan-20 18:00 150 11 gusting 15 7.7 4.0
2020-Jan-20 17:00 160 11 gusting 15 7.6 3.6
2020-Jan-20 16:00 170 9 gusting 13 7.6 3.7
2020-Jan-20 15:00 190 9 gusting 11 7.6 3.4